createdAt,value
2022-09-28T00:01:56.700Z,100090.20
2022-09-28T00:04:24.808Z,100096.80
2022-09-28T00:06:52.858Z,100099.20
2022-09-28T00:09:21.034Z,100099.20
2022-09-28T00:11:48.806Z,100106.60
2022-09-28T00:14:16.993Z,100113.00
2022-09-28T00:16:48.745Z,100108.60
2022-09-28T00:19:16.793Z,100114.20
2022-09-28T00:21:44.969Z,100108.20
2022-09-28T00:24:16.032Z,100109.20
2022-09-28T00:26:48.867Z,100119.20
2022-09-28T00:29:31.690Z,100119.80
2022-09-28T00:32:07.258Z,100121.20
2022-09-28T00:34:41.343Z,100118.00
2022-09-28T00:37:10.543Z,100119.00
2022-09-28T00:39:41.937Z,100119.80
2022-09-28T00:42:26.542Z,100114.60
2022-09-28T00:44:56.037Z,100118.00
2022-09-28T00:47:51.647Z,100120.00
2022-09-28T00:50:33.712Z,100117.80
2022-09-28T00:53:20.598Z,100113.80
2022-09-28T00:55:59.399Z,100113.60
2022-09-28T00:58:33.406Z,100116.00
2022-09-28T01:01:01.220Z,100121.60
2022-09-28T01:03:30.324Z,100116.20
2022-09-28T01:06:02.886Z,100114.80
2022-09-28T01:08:34.886Z,100112.20
2022-09-28T01:11:03.922Z,100119.40
2022-09-28T01:13:33.521Z,100117.40
2022-09-28T01:16:32.847Z,100114.00
2022-09-28T01:19:36.369Z,100116.60
2022-09-28T01:22:34.627Z,100118.60
2022-09-28T01:25:25.128Z,100122.60
2022-09-28T01:28:13.468Z,100119.60
2022-09-28T01:31:00.067Z,100127.00
2022-09-28T01:34:00.554Z,100128.20
2022-09-28T01:36:44.370Z,100130.00
2022-09-28T01:39:24.249Z,100134.60
2022-09-28T01:41:56.838Z,100131.00
2022-09-28T01:44:29.166Z,100133.40
2022-09-28T01:47:04.333Z,100133.00
2022-09-28T01:49:41.837Z,100136.80
2022-09-28T01:52:25.235Z,100141.00
2022-09-28T01:55:09.268Z,100144.80
2022-09-28T01:57:50.649Z,100139.40
2022-09-28T02:00:22.800Z,100135.80
2022-09-28T02:03:04.838Z,100133.40
2022-09-28T02:06:06.105Z,100135.00
2022-09-28T02:08:43.080Z,100137.60
2022-09-28T02:11:17.200Z,100139.80
2022-09-28T02:14:12.340Z,100140.60
2022-09-28T02:16:45.078Z,100137.80
2022-09-28T02:19:27.451Z,100142.40
2022-09-28T02:22:08.880Z,100146.60
2022-09-28T02:24:59.755Z,100149.40
2022-09-28T02:28:02.177Z,100147.40
2022-09-28T02:30:35.859Z,100148.60
2022-09-28T02:33:20.101Z,100149.80
2022-09-28T02:35:49.549Z,100148.80
2022-09-28T02:38:17.857Z,100150.40
2022-09-28T02:41:17.913Z,100150.80
2022-09-28T02:44:14.757Z,100148.00
2022-09-28T02:47:08.999Z,100151.00
2022-09-28T02:50:44.026Z,100152.00
2022-09-28T02:53:45.766Z,100151.00
2022-09-28T02:57:09.464Z,100151.40
2022-09-28T02:59:48.556Z,100147.60
2022-09-28T03:02:25.383Z,100148.60
2022-09-28T03:05:53.368Z,100149.60
2022-09-28T03:08:32.791Z,100161.60
2022-09-28T03:11:13.179Z,100154.20
2022-09-28T03:13:42.325Z,100160.20
2022-09-28T03:16:18.671Z,100161.00
2022-09-28T03:18:48.806Z,100164.00
2022-09-28T03:21:17.666Z,100166.00
2022-09-28T03:23:47.411Z,100166.00
2022-09-28T03:26:17.004Z,100162.00
2022-09-28T03:28:48.059Z,100162.60
2022-09-28T03:31:15.843Z,100160.20
2022-09-28T03:33:45.706Z,100159.40
2022-09-28T03:36:15.164Z,100159.40
2022-09-28T03:38:56.611Z,100169.80
2022-09-28T03:41:24.653Z,100170.40
2022-09-28T03:43:52.530Z,100170.40
2022-09-28T03:46:21.056Z,100171.00
2022-09-28T03:48:49.737Z,100173.80
2022-09-28T03:51:18.045Z,100170.60
2022-09-28T03:53:46.241Z,100168.60
2022-09-28T03:56:15.804Z,100175.20
2022-09-28T03:58:43.672Z,100175.40
2022-09-28T04:01:17.699Z,100177.20
2022-09-28T04:03:47.125Z,100177.80
2022-09-28T04:06:15.602Z,100183.60
2022-09-28T04:08:43.500Z,100185.40
2022-09-28T04:11:11.752Z,100188.40
2022-09-28T04:13:39.698Z,100188.20
2022-09-28T04:16:08.012Z,100188.60
2022-09-28T04:18:35.944Z,100187.20
2022-09-28T04:21:09.076Z,100181.40
2022-09-28T04:23:39.931Z,100181.80
2022-09-28T04:26:16.770Z,100180.60
2022-09-28T04:29:07.774Z,100183.80
2022-09-28T04:31:41.681Z,100179.80
2022-09-28T04:34:12.390Z,100183.00
2022-09-28T04:36:40.958Z,100181.80
2022-09-28T04:39:09.283Z,100186.80
2022-09-28T04:41:37.868Z,100187.60
2022-09-28T04:44:06.379Z,100185.80
2022-09-28T04:46:36.502Z,100184.80
2022-09-28T04:49:04.998Z,100187.00
2022-09-28T04:51:33.712Z,100193.20
2022-09-28T04:54:03.516Z,100190.40
2022-09-28T04:56:32.788Z,100188.20
2022-09-28T04:59:00.604Z,100197.20
2022-09-28T05:01:30.221Z,100194.00
2022-09-28T05:04:01.828Z,100196.40
2022-09-28T05:06:30.807Z,100194.60
2022-09-28T05:08:58.792Z,100197.80
2022-09-28T05:11:27.015Z,100197.60
2022-09-28T05:13:55.249Z,100199.80
2022-09-28T05:16:25.302Z,100198.00
2022-09-28T05:18:57.021Z,100199.60
2022-09-28T05:21:28.055Z,100200.80
2022-09-28T05:23:58.841Z,100198.60
2022-09-28T05:26:26.815Z,100196.60
2022-09-28T05:28:54.549Z,100195.80
2022-09-28T05:31:22.759Z,100200.40
2022-09-28T05:33:51.611Z,100204.20
2022-09-28T05:36:24.357Z,100203.60
2022-09-28T05:38:53.004Z,100202.40
2022-09-28T05:41:20.939Z,100195.20
2022-09-28T05:43:49.003Z,100198.80
2022-09-28T05:46:18.783Z,100196.20
2022-09-28T05:48:47.066Z,100199.00
2022-09-28T05:51:15.529Z,100195.80
2022-09-28T05:53:44.078Z,100194.80
2022-09-28T05:56:13.393Z,100197.00
2022-09-28T05:58:41.273Z,100199.20
2022-09-28T06:01:09.289Z,100206.00
2022-09-28T06:03:37.258Z,100203.80
2022-09-28T06:06:09.375Z,100209.20
2022-09-28T06:08:43.360Z,100213.80
2022-09-28T06:11:13.715Z,100217.40
2022-09-28T06:13:42.798Z,100216.00
2022-09-28T06:16:17.156Z,100217.80
2022-09-28T06:18:46.418Z,100219.20
2022-09-28T06:21:15.802Z,100211.80
2022-09-28T06:23:48.834Z,100215.80
2022-09-28T06:26:18.261Z,100214.00
2022-09-28T06:28:46.140Z,100211.40
2022-09-28T06:31:17.839Z,100215.00
2022-09-28T06:33:46.580Z,100216.60
2022-09-28T06:36:14.607Z,100216.00
2022-09-28T06:38:44.292Z,100218.40
2022-09-28T06:41:15.342Z,100219.20
2022-09-28T06:43:47.796Z,100221.40
2022-09-28T06:46:15.737Z,100225.60
2022-09-28T06:48:45.161Z,100229.40
2022-09-28T06:51:15.453Z,100231.80
2022-09-28T06:53:43.229Z,100230.60
2022-09-28T06:56:12.271Z,100227.80
2022-09-28T06:58:40.089Z,100234.80
2022-09-28T07:01:08.104Z,100237.00
2022-09-28T07:03:36.288Z,100244.00
2022-09-28T07:06:04.769Z,100249.80
2022-09-28T07:08:33.528Z,100252.80
2022-09-28T07:11:06.996Z,100259.80
2022-09-28T07:13:49.807Z,100260.80
2022-09-28T07:16:21.675Z,100257.00
2022-09-28T07:18:53.798Z,100264.20
2022-09-28T07:21:30.511Z,100261.80
2022-09-28T07:24:00.154Z,100265.00
2022-09-28T07:26:28.229Z,100267.00
2022-09-28T07:28:57.494Z,100273.40
2022-09-28T07:31:25.433Z,100274.60
2022-09-28T07:33:54.137Z,100284.00
2022-09-28T07:36:22.945Z,100284.00
2022-09-28T07:38:52.270Z,100286.80
2022-09-28T07:41:32.281Z,100288.00
2022-09-28T07:44:06.276Z,100284.20
2022-09-28T07:46:36.026Z,100288.00
2022-09-28T07:49:09.827Z,100294.20
2022-09-28T07:51:40.752Z,100297.00
2022-09-28T07:54:08.839Z,100305.20
2022-09-28T07:56:36.712Z,100302.00
2022-09-28T07:59:04.737Z,100303.00
2022-09-28T08:01:32.699Z,100302.00
2022-09-28T08:04:00.652Z,100305.20
2022-09-28T08:06:31.445Z,100305.20
2022-09-28T08:09:00.842Z,100311.60
2022-09-28T08:11:30.108Z,100305.60
2022-09-28T08:13:58.211Z,100307.40
2022-09-28T08:16:28.528Z,100308.80
2022-09-28T08:18:56.378Z,100312.00
2022-09-28T08:21:43.550Z,100312.80
2022-09-28T08:24:16.854Z,100318.60
2022-09-28T08:26:45.466Z,100319.40
2022-09-28T08:29:13.352Z,100321.40
2022-09-28T08:31:41.212Z,100332.20
2022-09-28T08:34:09.447Z,100336.00
2022-09-28T08:36:38.421Z,100337.60
2022-09-28T08:39:06.257Z,100341.00
2022-09-28T08:41:59.021Z,100338.80
2022-09-28T08:44:41.135Z,100336.80
2022-09-28T08:47:59.993Z,100339.80
2022-09-28T08:50:34.106Z,100343.60
2022-09-28T08:53:17.895Z,100351.00
2022-09-28T08:55:49.968Z,100347.80
2022-09-28T08:58:28.781Z,100350.60
2022-09-28T09:00:56.686Z,100354.20
2022-09-28T09:03:39.768Z,100358.80
2022-09-28T09:06:43.304Z,100355.60
2022-09-28T09:09:52.761Z,100361.80
2022-09-28T09:13:12.552Z,100364.60
2022-09-28T09:16:05.426Z,100368.80
2022-09-28T09:19:04.148Z,100371.60
2022-09-28T09:21:52.547Z,100370.20
2022-09-28T09:24:29.402Z,100367.20
2022-09-28T09:27:13.188Z,100375.20
2022-09-28T09:30:19.055Z,100375.20
2022-09-28T09:33:09.345Z,100372.80
2022-09-28T09:35:40.009Z,100378.80
2022-09-28T09:38:41.525Z,100379.00
2022-09-28T09:41:34.593Z,100382.40
2022-09-28T09:44:27.038Z,100386.80
2022-09-28T09:47:45.219Z,100383.20
2022-09-28T09:50:30.851Z,100389.40
2022-09-28T09:53:26.521Z,100390.20
2022-09-28T09:56:13.623Z,100386.60
2022-09-28T09:58:50.997Z,100385.00
2022-09-28T10:01:27.672Z,100385.20
2022-09-28T10:03:59.054Z,100392.40
2022-09-28T10:06:36.390Z,100391.00
2022-09-28T10:09:16.740Z,100395.60
2022-09-28T10:11:50.587Z,100392.80
2022-09-28T10:14:24.406Z,100391.40
2022-09-28T10:16:57.347Z,100396.00
2022-09-28T10:19:34.070Z,100394.80
2022-09-28T10:22:08.564Z,100402.80
2022-09-28T10:24:46.032Z,100397.00
2022-09-28T10:27:24.950Z,100398.80
2022-09-28T10:29:54.773Z,100397.40
2022-09-28T10:32:27.403Z,100399.80
2022-09-28T10:35:19.072Z,100404.20
2022-09-28T10:38:06.898Z,100411.00
2022-09-28T10:40:46.364Z,100410.80
2022-09-28T10:43:27.281Z,100411.40
2022-09-28T10:46:20.363Z,100413.20
2022-09-28T10:48:57.917Z,100412.00
2022-09-28T10:51:49.595Z,100421.00
2022-09-28T10:54:20.482Z,100417.60
2022-09-28T10:56:50.917Z,100413.20
2022-09-28T10:59:31.422Z,100416.40
2022-09-28T11:02:14.323Z,100417.20
2022-09-28T11:04:44.684Z,100416.40
2022-09-28T11:07:27.544Z,100417.20
2022-09-28T11:09:56.268Z,100420.40
2022-09-28T11:12:31.160Z,100423.40
2022-09-28T11:15:04.003Z,100421.40
2022-09-28T11:17:41.829Z,100428.80
2022-09-28T11:20:27.911Z,100426.60
2022-09-28T11:23:35.203Z,100428.20
2022-09-28T11:26:09.246Z,100431.00
2022-09-28T11:28:42.088Z,100433.00
2022-09-28T11:31:11.624Z,100436.40
2022-09-28T11:33:45.618Z,100436.40
2022-09-28T11:36:13.350Z,100434.80
2022-09-28T11:39:04.037Z,100438.00
2022-09-28T11:41:56.251Z,100439.20
2022-09-28T11:44:42.419Z,100436.80
2022-09-28T11:47:43.362Z,100435.20
2022-09-28T11:50:40.756Z,100438.80
2022-09-28T11:53:20.747Z,100445.00
2022-09-28T11:56:08.851Z,100443.80
2022-09-28T11:58:44.625Z,100448.00
2022-09-28T12:01:26.832Z,100449.20
2022-09-28T12:04:09.694Z,100451.60
2022-09-28T12:07:17.769Z,100458.00
2022-09-28T12:10:02.842Z,100458.20
2022-09-28T12:12:47.853Z,100463.80
2022-09-28T12:15:25.916Z,100468.20
2022-09-28T12:18:02.762Z,100462.80
2022-09-28T12:20:40.140Z,100468.20
2022-09-28T12:23:14.591Z,100463.80
2022-09-28T12:26:04.933Z,100467.00
2022-09-28T12:28:59.451Z,100470.20
2022-09-28T12:31:51.288Z,100470.20
2022-09-28T12:34:19.748Z,100468.40
2022-09-28T12:37:14.526Z,100470.40
2022-09-28T12:39:57.841Z,100467.20
2022-09-28T12:42:53.249Z,100466.80
2022-09-28T12:46:13.918Z,100468.00
2022-09-28T12:49:56.310Z,100462.00
2022-09-28T12:52:00.362Z,100463.00
2022-09-28T12:54:56.218Z,100468.80
2022-09-28T12:57:40.063Z,100466.40
2022-09-28T13:00:22.884Z,100470.40
2022-09-28T13:03:53.027Z,100471.20
2022-09-28T13:06:56.048Z,100474.80
2022-09-28T13:09:29.084Z,100476.40
2022-09-28T13:12:23.382Z,100471.80
2022-09-28T13:15:23.824Z,100476.80
2022-09-28T13:18:08.224Z,100471.80
2022-09-28T13:21:13.806Z,100475.80
2022-09-28T13:23:47.301Z,100479.20
2022-09-28T13:26:37.216Z,100483.40
2022-09-28T13:29:16.532Z,100479.00
2022-09-28T13:31:58.347Z,100474.20
2022-09-28T13:34:33.100Z,100473.40
2022-09-28T13:37:24.495Z,100472.60
2022-09-28T13:40:07.708Z,100476.60
2022-09-28T13:42:45.320Z,100476.00
2022-09-28T13:45:49.824Z,100475.80
2022-09-28T13:48:56.458Z,100476.20
2022-09-28T13:51:38.332Z,100478.60
2022-09-28T13:54:18.377Z,100478.80
2022-09-28T13:57:25.393Z,100477.80
2022-09-28T14:00:12.102Z,100482.40
2022-09-28T14:03:21.572Z,100486.80
2022-09-28T14:06:32.597Z,100477.80
2022-09-28T14:09:18.703Z,100482.00
2022-09-28T14:12:01.356Z,100483.80
2022-09-28T14:14:44.775Z,100485.20
2022-09-28T14:17:21.485Z,100489.80
2022-09-28T14:20:13.873Z,100479.20
2022-09-28T14:23:15.769Z,100491.00
2022-09-28T14:25:59.291Z,100486.60
2022-09-28T14:28:56.492Z,100489.60
2022-09-28T14:31:29.401Z,100496.20
2022-09-28T14:34:07.509Z,100495.60
2022-09-28T14:37:07.507Z,100499.40
2022-09-28T14:40:02.987Z,100498.80
2022-09-28T14:42:31.377Z,100497.60
2022-09-28T14:45:06.112Z,100499.40
2022-09-28T14:48:12.519Z,100501.40
2022-09-28T14:50:40.529Z,100502.40
2022-09-28T14:53:20.967Z,100507.00
2022-09-28T14:56:01.877Z,100504.40
2022-09-28T14:58:33.910Z,100507.20
2022-09-28T15:01:14.552Z,100505.80
2022-09-28T15:03:53.061Z,100519.20
2022-09-28T15:06:27.285Z,100523.40
2022-09-28T15:08:55.645Z,100523.40
2022-09-28T15:11:28.310Z,100523.40
2022-09-28T15:14:08.424Z,100529.00
2022-09-28T15:16:38.031Z,100523.60
2022-09-28T15:19:39.097Z,100527.80
2022-09-28T15:22:18.530Z,100533.20
2022-09-28T15:25:02.034Z,100530.40
2022-09-28T15:27:38.685Z,100533.40
2022-09-28T15:30:18.830Z,100537.40
2022-09-28T15:32:47.130Z,100543.60
2022-09-28T15:35:26.402Z,100546.40
2022-09-28T15:37:58.174Z,100542.00
2022-09-28T15:40:35.387Z,100545.20
2022-09-28T15:43:29.195Z,100542.80
2022-09-28T15:46:21.273Z,100544.80
2022-09-28T15:49:01.549Z,100542.60
2022-09-28T15:51:45.032Z,100543.20
2022-09-28T15:54:24.985Z,100543.40
2022-09-28T15:57:01.664Z,100546.60
2022-09-28T15:59:37.641Z,100544.00
2022-09-28T16:02:24.888Z,100548.60
2022-09-28T16:05:04.667Z,100548.60
2022-09-28T16:07:41.687Z,100550.20
2022-09-28T16:10:12.194Z,100546.80
2022-09-28T16:12:40.121Z,100554.20
2022-09-28T16:15:36.924Z,100554.00
2022-09-28T16:18:20.404Z,100560.00
2022-09-28T16:20:52.850Z,100558.00
2022-09-28T16:23:27.975Z,100560.60
2022-09-28T16:26:06.193Z,100562.80
2022-09-28T16:28:39.000Z,100563.20
2022-09-28T16:31:12.728Z,100565.00
2022-09-28T16:34:20.027Z,100565.60
2022-09-28T16:36:49.856Z,100574.80
2022-09-28T16:39:30.031Z,100577.80
2022-09-28T16:42:03.328Z,100578.60
2022-09-28T16:44:35.044Z,100578.00
2022-09-28T16:47:03.018Z,100582.20
2022-09-28T16:49:32.300Z,100591.80
2022-09-28T16:52:02.413Z,100595.20
2022-09-28T16:54:51.240Z,100597.80
2022-09-28T16:57:19.143Z,100602.60
2022-09-28T16:59:46.835Z,100601.80
2022-09-28T17:02:45.080Z,100605.60
2022-09-28T17:05:12.982Z,100608.40
2022-09-28T17:07:41.376Z,100607.80
2022-09-28T17:10:25.874Z,100609.80
2022-09-28T17:12:53.626Z,100613.40
2022-09-28T17:15:21.501Z,100616.20
2022-09-28T17:17:50.545Z,100616.20
2022-09-28T17:20:24.198Z,100620.20
2022-09-28T17:22:53.651Z,100622.40
2022-09-28T17:25:27.270Z,100624.40
2022-09-28T17:27:58.744Z,100623.40
2022-09-28T17:30:27.183Z,100621.60
2022-09-28T17:32:55.090Z,100623.00
2022-09-28T17:35:25.837Z,100626.20
2022-09-28T17:37:55.966Z,100626.60
2022-09-28T17:40:28.450Z,100630.00
2022-09-28T17:42:59.148Z,100631.00
2022-09-28T17:45:28.578Z,100630.00
2022-09-28T17:48:00.837Z,100634.20
2022-09-28T17:50:34.060Z,100634.00
2022-09-28T17:53:09.140Z,100638.20
2022-09-28T17:55:39.727Z,100634.60
2022-09-28T17:58:23.015Z,100637.00
2022-09-28T18:00:53.959Z,100645.20
2022-09-28T18:03:25.227Z,100643.40
2022-09-28T18:06:12.419Z,100641.20
2022-09-28T18:08:41.523Z,100643.20
2022-09-28T18:11:11.276Z,100643.40
2022-09-28T18:13:39.914Z,100649.40
2022-09-28T18:16:09.417Z,100648.80
2022-09-28T18:18:39.920Z,100652.40
2022-09-28T18:21:09.387Z,100652.80
2022-09-28T18:23:41.183Z,100654.80
2022-09-28T18:26:16.151Z,100658.20
2022-09-28T18:28:46.751Z,100659.20
2022-09-28T18:31:19.358Z,100660.60
2022-09-28T18:33:48.551Z,100663.60
2022-09-28T18:36:16.306Z,100658.40
2022-09-28T18:38:44.384Z,100657.60
2022-09-28T18:41:15.802Z,100668.00
2022-09-28T18:43:51.147Z,100669.80
2022-09-28T18:46:19.577Z,100672.60
2022-09-28T18:48:48.350Z,100679.40
2022-09-28T18:51:18.495Z,100683.40
2022-09-28T18:53:46.839Z,100685.20
2022-09-28T18:56:18.378Z,100690.20
2022-09-28T18:58:51.797Z,100690.40
2022-09-28T19:01:30.555Z,100691.80
2022-09-28T19:04:01.801Z,100692.80
2022-09-28T19:06:34.532Z,100699.40
2022-09-28T19:09:02.570Z,100698.40
2022-09-28T19:11:30.450Z,100704.00
2022-09-28T19:14:01.071Z,100698.80
2022-09-28T19:16:31.059Z,100708.40
2022-09-28T19:19:02.217Z,100707.40
2022-09-28T19:21:31.878Z,100707.40
2022-09-28T19:24:04.113Z,100721.20
2022-09-28T19:26:34.574Z,100718.80
2022-09-28T19:29:03.150Z,100719.60
2022-09-28T19:31:33.891Z,100730.00
2022-09-28T19:34:05.750Z,100731.80
2022-09-28T19:36:37.631Z,100743.40
2022-09-28T19:39:07.424Z,100742.60
2022-09-28T19:41:43.453Z,100746.00
2022-09-28T19:44:24.714Z,100749.20
2022-09-28T19:47:00.745Z,100753.40
2022-09-28T19:49:33.246Z,100754.00
2022-09-28T19:52:12.895Z,100760.00
2022-09-28T19:54:58.351Z,100763.00
2022-09-28T19:57:32.874Z,100773.80
2022-09-28T20:00:03.776Z,100769.00
2022-09-28T20:02:36.857Z,100771.00
2022-09-28T20:05:05.851Z,100769.20
2022-09-28T20:07:35.304Z,100774.00
2022-09-28T20:10:03.409Z,100779.80
2022-09-28T20:12:31.833Z,100777.80
2022-09-28T20:14:59.565Z,100777.00
2022-09-28T20:17:28.198Z,100778.60
2022-09-28T20:19:56.086Z,100781.00
2022-09-28T20:22:25.091Z,100785.00
2022-09-28T20:24:55.073Z,100787.40
2022-09-28T20:27:26.186Z,100785.20
2022-09-28T20:29:54.769Z,100784.20
2022-09-28T20:32:23.040Z,100788.40
2022-09-28T20:34:50.911Z,100786.40
2022-09-28T20:37:19.595Z,100796.20
2022-09-28T20:39:47.931Z,100797.40
2022-09-28T20:42:16.589Z,100804.80
2022-09-28T20:44:44.377Z,100812.40
2022-09-28T20:47:12.710Z,100812.20
2022-09-28T20:49:40.911Z,100814.60
2022-09-28T20:52:09.216Z,100823.60
2022-09-28T20:54:38.246Z,100827.20
2022-09-28T20:57:17.541Z,100827.20
2022-09-28T20:59:50.985Z,100828.80
2022-09-28T21:02:22.809Z,100838.00
2022-09-28T21:04:51.554Z,100837.80
2022-09-28T21:07:19.310Z,100840.00
2022-09-28T21:09:47.338Z,100833.60
2022-09-28T21:12:15.503Z,100844.40
2022-09-28T21:14:43.373Z,100843.20
2022-09-28T21:17:12.317Z,100844.60
2022-09-28T21:19:40.500Z,100847.80
2022-09-28T21:22:08.296Z,100851.20
2022-09-28T21:24:37.240Z,100849.60
2022-09-28T21:27:04.939Z,100854.80
2022-09-28T21:29:34.081Z,100850.80
2022-09-28T21:32:02.234Z,100855.60
2022-09-28T21:34:30.622Z,100844.80
2022-09-28T21:36:59.378Z,100857.20
2022-09-28T21:39:27.069Z,100860.00
2022-09-28T21:41:56.018Z,100862.00
2022-09-28T21:44:23.848Z,100865.20
2022-09-28T21:46:54.233Z,100870.80
2022-09-28T21:49:24.530Z,100873.60
2022-09-28T21:51:53.050Z,100873.80
2022-09-28T21:54:21.837Z,100878.60
2022-09-28T21:56:49.739Z,100876.00
2022-09-28T21:59:17.613Z,100875.80
2022-09-28T22:01:45.595Z,100883.80
2022-09-28T22:04:13.588Z,100877.60
2022-09-28T22:06:41.410Z,100885.40
2022-09-28T22:09:09.473Z,100883.80
2022-09-28T22:11:38.515Z,100888.60
2022-09-28T22:14:06.459Z,100892.20
2022-09-28T22:16:34.260Z,100889.80
2022-09-28T22:19:02.463Z,100899.40
2022-09-28T22:21:34.675Z,100898.40
2022-09-28T22:24:06.622Z,100901.40
2022-09-28T22:26:37.449Z,100897.20
2022-09-28T22:29:10.723Z,100903.60
2022-09-28T22:31:40.854Z,100898.80
2022-09-28T22:34:10.481Z,100892.80
2022-09-28T22:36:38.572Z,100897.60
2022-09-28T22:39:08.107Z,100900.40
2022-09-28T22:41:36.028Z,100902.60
2022-09-28T22:44:05.006Z,100900.40
2022-09-28T22:46:33.854Z,100898.80
2022-09-28T22:49:02.007Z,100898.60
2022-09-28T22:51:31.762Z,100907.20
2022-09-28T22:53:59.906Z,100905.60
2022-09-28T22:56:29.499Z,100900.00
2022-09-28T22:58:59.625Z,100906.00
2022-09-28T23:01:31.174Z,100908.60
2022-09-28T23:03:59.867Z,100904.80
2022-09-28T23:06:30.990Z,100903.60
2022-09-28T23:08:59.908Z,100908.20
2022-09-28T23:11:29.129Z,100912.80
2022-09-28T23:14:00.661Z,100909.40
2022-09-28T23:16:28.702Z,100909.00
2022-09-28T23:18:57.802Z,100911.60
2022-09-28T23:21:28.391Z,100914.80
2022-09-28T23:24:03.648Z,100918.20
2022-09-28T23:26:36.937Z,100916.20
2022-09-28T23:29:05.850Z,100917.20
2022-09-28T23:31:34.777Z,100916.20
2022-09-28T23:34:06.988Z,100917.60
2022-09-28T23:36:35.624Z,100925.20
2022-09-28T23:39:04.894Z,100923.40
2022-09-28T23:41:32.688Z,100919.80
2022-09-28T23:44:00.628Z,100916.40
2022-09-28T23:46:28.852Z,100922.40
2022-09-28T23:48:57.289Z,100923.80
2022-09-28T23:51:25.315Z,100917.00
2022-09-28T23:53:54.766Z,100920.40
2022-09-28T23:56:22.618Z,100921.80
2022-09-28T23:58:51.511Z,100918.60
